sensor_id;sensor_type;location;lat;lon;timestamp;P1;durP1;ratioP1;P2;durP2;ratioP2
65130;SDS011;51709;54.912;8.316;2023-08-06T00:01:06;4.35;;;2.42;;
65130;SDS011;51709;54.912;8.316;2023-08-06T00:06:27;3.95;;;2.45;;
65130;SDS011;51709;54.912;8.316;2023-08-06T00:11:47;5.20;;;2.67;;
65130;SDS011;51709;54.912;8.316;2023-08-06T00:17:08;4.13;;;2.65;;
65130;SDS011;51709;54.912;8.316;2023-08-06T00:22:29;3.80;;;2.70;;
65130;SDS011;51709;54.912;8.316;2023-08-06T00:27:49;5.35;;;2.42;;
65130;SDS011;51709;54.912;8.316;2023-08-06T00:33:10;7.22;;;2.45;;
65130;SDS011;51709;54.912;8.316;2023-08-06T00:38:30;3.55;;;2.83;;
65130;SDS011;51709;54.912;8.316;2023-08-06T00:43:51;4.53;;;2.22;;
65130;SDS011;51709;54.912;8.316;2023-08-06T00:49:12;5.95;;;2.67;;
65130;SDS011;51709;54.912;8.316;2023-08-06T00:54:33;8.77;;;2.47;;
65130;SDS011;51709;54.912;8.316;2023-08-06T00:59:55;6.25;;;2.42;;
65130;SDS011;51709;54.912;8.316;2023-08-06T01:05:16;8.13;;;2.67;;
65130;SDS011;51709;54.912;8.316;2023-08-06T01:16:20;4.15;;;2.67;;
65130;SDS011;51709;54.912;8.316;2023-08-06T01:21:41;9.48;;;3.13;;
65130;SDS011;51709;54.912;8.316;2023-08-06T01:27:15;8.32;;;2.45;;
65130;SDS011;51709;54.912;8.316;2023-08-06T01:32:45;5.78;;;2.88;;
65130;SDS011;51709;54.912;8.316;2023-08-06T01:38:09;5.55;;;3.03;;
65130;SDS011;51709;54.912;8.316;2023-08-06T01:43:30;8.35;;;3.10;;
65130;SDS011;51709;54.912;8.316;2023-08-06T01:48:51;9.07;;;2.63;;
65130;SDS011;51709;54.912;8.316;2023-08-06T01:54:11;3.30;;;2.58;;
65130;SDS011;51709;54.912;8.316;2023-08-06T01:59:32;5.47;;;3.20;;
65130;SDS011;51709;54.912;8.316;2023-08-06T02:04:53;3.63;;;3.05;;
65130;SDS011;51709;54.912;8.316;2023-08-06T02:10:14;9.63;;;2.67;;
65130;SDS011;51709;54.912;8.316;2023-08-06T02:15:35;2.95;;;2.70;;
65130;SDS011;51709;54.912;8.316;2023-08-06T02:20:58;3.33;;;2.45;;
65130;SDS011;51709;54.912;8.316;2023-08-06T02:26:19;3.13;;;2.42;;
65130;SDS011;51709;54.912;8.316;2023-08-06T02:31:41;5.88;;;2.88;;
65130;SDS011;51709;54.912;8.316;2023-08-06T02:37:02;5.65;;;2.95;;
65130;SDS011;51709;54.912;8.316;2023-08-06T02:42:23;7.80;;;2.90;;
65130;SDS011;51709;54.912;8.316;2023-08-06T02:47:46;3.80;;;2.90;;
65130;SDS011;51709;54.912;8.316;2023-08-06T02:53:07;3.53;;;2.80;;
65130;SDS011;51709;54.912;8.316;2023-08-06T02:58:30;4.47;;;3.15;;
65130;SDS011;51709;54.912;8.316;2023-08-06T03:04:06;6.65;;;2.95;;
65130;SDS011;51709;54.912;8.316;2023-08-06T03:09:32;3.88;;;2.92;;
65130;SDS011;51709;54.912;8.316;2023-08-06T03:14:52;4.82;;;3.15;;
65130;SDS011;51709;54.912;8.316;2023-08-06T03:20:13;4.80;;;2.95;;
65130;SDS011;51709;54.912;8.316;2023-08-06T03:25:35;5.60;;;2.92;;
65130;SDS011;51709;54.912;8.316;2023-08-06T03:31:03;7.35;;;3.40;;
65130;SDS011;51709;54.912;8.316;2023-08-06T03:36:31;4.30;;;2.60;;
65130;SDS011;51709;54.912;8.316;2023-08-06T03:41:55;7.28;;;3.20;;
65130;SDS011;51709;54.912;8.316;2023-08-06T03:47:17;7.57;;;2.88;;
65130;SDS011;51709;54.912;8.316;2023-08-06T03:58:03;4.88;;;2.92;;
65130;SDS011;51709;54.912;8.316;2023-08-06T04:03:25;8.90;;;2.78;;
65130;SDS011;51709;54.912;8.316;2023-08-06T04:08:46;10.88;;;3.10;;
65130;SDS011;51709;54.912;8.316;2023-08-06T04:14:07;3.88;;;3.15;;
65130;SDS011;51709;54.912;8.316;2023-08-06T04:19:27;4.95;;;4.00;;
65130;SDS011;51709;54.912;8.316;2023-08-06T04:24:48;3.80;;;3.17;;
65130;SDS011;51709;54.912;8.316;2023-08-06T04:30:09;12.18;;;3.47;;
65130;SDS011;51709;54.912;8.316;2023-08-06T04:35:34;5.68;;;2.75;;
65130;SDS011;51709;54.912;8.316;2023-08-06T04:40:54;6.05;;;2.75;;
65130;SDS011;51709;54.912;8.316;2023-08-06T04:46:16;10.13;;;4.78;;
65130;SDS011;51709;54.912;8.316;2023-08-06T04:51:37;5.47;;;3.00;;
65130;SDS011;51709;54.912;8.316;2023-08-06T04:56:57;3.13;;;2.83;;
65130;SDS011;51709;54.912;8.316;2023-08-06T05:02:18;4.15;;;3.60;;
65130;SDS011;51709;54.912;8.316;2023-08-06T05:07:38;5.57;;;3.30;;
65130;SDS011;51709;54.912;8.316;2023-08-06T05:12:59;7.25;;;3.38;;
65130;SDS011;51709;54.912;8.316;2023-08-06T05:18:21;11.73;;;3.47;;
65130;SDS011;51709;54.912;8.316;2023-08-06T05:23:42;7.30;;;3.55;;
65130;SDS011;51709;54.912;8.316;2023-08-06T05:29:03;6.50;;;3.22;;
65130;SDS011;51709;54.912;8.316;2023-08-06T05:34:23;4.07;;;3.00;;
65130;SDS011;51709;54.912;8.316;2023-08-06T05:39:45;6.57;;;2.97;;
65130;SDS011;51709;54.912;8.316;2023-08-06T05:45:06;5.88;;;4.05;;
65130;SDS011;51709;54.912;8.316;2023-08-06T05:50:27;6.32;;;3.70;;
65130;SDS011;51709;54.912;8.316;2023-08-06T05:55:48;5.32;;;3.92;;
65130;SDS011;51709;54.912;8.316;2023-08-06T06:01:08;4.30;;;3.15;;
65130;SDS011;51709;54.912;8.316;2023-08-06T06:06:29;7.78;;;3.55;;
65130;SDS011;51709;54.912;8.316;2023-08-06T06:11:50;4.78;;;3.00;;
65130;SDS011;51709;54.912;8.316;2023-08-06T06:17:11;3.65;;;3.20;;
65130;SDS011;51709;54.912;8.316;2023-08-06T06:22:32;3.38;;;2.72;;
65130;SDS011;51709;54.912;8.316;2023-08-06T06:27:53;6.50;;;3.65;;
65130;SDS011;51709;54.912;8.316;2023-08-06T06:33:13;10.05;;;6.05;;
65130;SDS011;51709;54.912;8.316;2023-08-06T06:38:34;6.78;;;4.35;;
65130;SDS011;51709;54.912;8.316;2023-08-06T06:43:55;7.07;;;4.15;;
65130;SDS011;51709;54.912;8.316;2023-08-06T06:49:19;6.47;;;4.00;;
65130;SDS011;51709;54.912;8.316;2023-08-06T06:54:40;8.50;;;3.90;;
65130;SDS011;51709;54.912;8.316;2023-08-06T07:00:00;4.70;;;2.53;;
65130;SDS011;51709;54.912;8.316;2023-08-06T07:05:24;4.60;;;2.60;;
65130;SDS011;51709;54.912;8.316;2023-08-06T07:10:45;8.52;;;3.17;;
65130;SDS011;51709;54.912;8.316;2023-08-06T07:16:05;2.80;;;1.90;;
65130;SDS011;51709;54.912;8.316;2023-08-06T07:21:29;5.10;;;2.60;;
65130;SDS011;51709;54.912;8.316;2023-08-06T07:26:50;4.53;;;2.25;;
65130;SDS011;51709;54.912;8.316;2023-08-06T07:32:12;5.72;;;2.30;;
65130;SDS011;51709;54.912;8.316;2023-08-06T07:37:33;5.72;;;2.00;;
65130;SDS011;51709;54.912;8.316;2023-08-06T07:42:54;2.47;;;2.22;;
65130;SDS011;51709;54.912;8.316;2023-08-06T07:48:15;3.42;;;2.72;;
65130;SDS011;51709;54.912;8.316;2023-08-06T07:53:36;3.25;;;2.50;;
65130;SDS011;51709;54.912;8.316;2023-08-06T07:58:56;2.35;;;1.88;;
65130;SDS011;51709;54.912;8.316;2023-08-06T08:04:16;7.05;;;2.38;;
65130;SDS011;51709;54.912;8.316;2023-08-06T08:09:37;3.38;;;2.42;;
65130;SDS011;51709;54.912;8.316;2023-08-06T08:14:57;7.47;;;2.30;;
65130;SDS011;51709;54.912;8.316;2023-08-06T08:20:18;5.40;;;1.70;;
65130;SDS011;51709;54.912;8.316;2023-08-06T08:25:39;2.55;;;1.95;;
65130;SDS011;51709;54.912;8.316;2023-08-06T08:30:59;4.97;;;2.10;;
65130;SDS011;51709;54.912;8.316;2023-08-06T08:36:20;5.63;;;2.00;;
65130;SDS011;51709;54.912;8.316;2023-08-06T08:41:41;3.67;;;1.60;;
65130;SDS011;51709;54.912;8.316;2023-08-06T08:47:02;6.57;;;2.33;;
65130;SDS011;51709;54.912;8.316;2023-08-06T08:52:24;4.28;;;2.00;;
65130;SDS011;51709;54.912;8.316;2023-08-06T08:57:45;2.83;;;1.73;;
65130;SDS011;51709;54.912;8.316;2023-08-06T09:03:06;3.83;;;1.50;;
65130;SDS011;51709;54.912;8.316;2023-08-06T09:08:30;1.85;;;1.13;;
65130;SDS011;51709;54.912;8.316;2023-08-06T09:13:56;9.25;;;1.67;;
65130;SDS011;51709;54.912;8.316;2023-08-06T09:19:16;2.17;;;1.40;;
65130;SDS011;51709;54.912;8.316;2023-08-06T09:24:38;1.95;;;1.77;;
65130;SDS011;51709;54.912;8.316;2023-08-06T09:29:59;2.17;;;1.48;;
65130;SDS011;51709;54.912;8.316;2023-08-06T09:35:21;1.83;;;1.58;;
65130;SDS011;51709;54.912;8.316;2023-08-06T09:40:43;4.10;;;1.75;;
65130;SDS011;51709;54.912;8.316;2023-08-06T09:46:10;1.63;;;1.52;;
65130;SDS011;51709;54.912;8.316;2023-08-06T09:51:31;1.85;;;1.20;;
65130;SDS011;51709;54.912;8.316;2023-08-06T09:56:55;2.47;;;1.83;;
65130;SDS011;51709;54.912;8.316;2023-08-06T10:02:16;1.88;;;1.70;;
65130;SDS011;51709;54.912;8.316;2023-08-06T10:07:39;1.33;;;1.23;;
65130;SDS011;51709;54.912;8.316;2023-08-06T10:13:00;0.82;;;0.82;;
65130;SDS011;51709;54.912;8.316;2023-08-06T10:18:22;2.80;;;1.40;;
65130;SDS011;51709;54.912;8.316;2023-08-06T10:23:43;2.50;;;1.17;;
65130;SDS011;51709;54.912;8.316;2023-08-06T10:34:59;3.67;;;1.15;;
65130;SDS011;51709;54.912;8.316;2023-08-06T10:40:22;1.65;;;1.00;;
65130;SDS011;51709;54.912;8.316;2023-08-06T10:45:50;1.40;;;1.30;;
65130;SDS011;51709;54.912;8.316;2023-08-06T10:51:12;2.58;;;1.48;;
65130;SDS011;51709;54.912;8.316;2023-08-06T10:56:39;1.48;;;1.10;;
65130;SDS011;51709;54.912;8.316;2023-08-06T11:02:01;1.30;;;0.98;;
65130;SDS011;51709;54.912;8.316;2023-08-06T11:07:21;5.13;;;1.60;;
65130;SDS011;51709;54.912;8.316;2023-08-06T11:12:43;1.92;;;1.50;;
65130;SDS011;51709;54.912;8.316;2023-08-06T11:18:04;8.85;;;2.05;;
65130;SDS011;51709;54.912;8.316;2023-08-06T11:23:29;2.85;;;1.50;;
65130;SDS011;51709;54.912;8.316;2023-08-06T11:28:50;1.83;;;1.17;;
65130;SDS011;51709;54.912;8.316;2023-08-06T11:34:11;2.67;;;1.30;;
65130;SDS011;51709;54.912;8.316;2023-08-06T11:39:32;3.20;;;1.30;;
65130;SDS011;51709;54.912;8.316;2023-08-06T11:44:56;2.15;;;1.70;;
65130;SDS011;51709;54.912;8.316;2023-08-06T11:50:26;1.23;;;1.13;;
65130;SDS011;51709;54.912;8.316;2023-08-06T11:55:47;1.55;;;1.45;;
65130;SDS011;51709;54.912;8.316;2023-08-06T12:01:08;1.05;;;1.02;;
65130;SDS011;51709;54.912;8.316;2023-08-06T12:06:29;4.10;;;1.23;;
65130;SDS011;51709;54.912;8.316;2023-08-06T12:11:50;3.75;;;1.58;;
65130;SDS011;51709;54.912;8.316;2023-08-06T12:17:13;2.35;;;1.60;;
65130;SDS011;51709;54.912;8.316;2023-08-06T12:22:34;3.17;;;1.10;;
65130;SDS011;51709;54.912;8.316;2023-08-06T12:27:56;2.25;;;1.38;;
65130;SDS011;51709;54.912;8.316;2023-08-06T12:33:16;1.33;;;1.23;;
65130;SDS011;51709;54.912;8.316;2023-08-06T12:38:37;2.65;;;1.80;;
65130;SDS011;51709;54.912;8.316;2023-08-06T12:43:57;0.98;;;0.98;;
65130;SDS011;51709;54.912;8.316;2023-08-06T12:49:18;1.35;;;1.17;;
65130;SDS011;51709;54.912;8.316;2023-08-06T12:54:41;1.67;;;1.33;;
65130;SDS011;51709;54.912;8.316;2023-08-06T13:00:02;1.33;;;1.23;;
65130;SDS011;51709;54.912;8.316;2023-08-06T13:05:27;2.05;;;1.30;;
65130;SDS011;51709;54.912;8.316;2023-08-06T13:10:47;1.35;;;1.25;;
65130;SDS011;51709;54.912;8.316;2023-08-06T13:16:08;2.40;;;2.03;;
65130;SDS011;51709;54.912;8.316;2023-08-06T13:21:35;1.30;;;1.20;;
65130;SDS011;51709;54.912;8.316;2023-08-06T13:27:16;1.67;;;1.48;;
65130;SDS011;51709;54.912;8.316;2023-08-06T13:32:37;1.10;;;1.10;;
65130;SDS011;51709;54.912;8.316;2023-08-06T13:37:58;2.00;;;1.20;;
65130;SDS011;51709;54.912;8.316;2023-08-06T13:43:18;8.70;;;1.65;;
65130;SDS011;51709;54.912;8.316;2023-08-06T13:48:39;7.82;;;1.50;;
65130;SDS011;51709;54.912;8.316;2023-08-06T13:54:00;2.45;;;1.50;;
65130;SDS011;51709;54.912;8.316;2023-08-06T13:59:20;1.58;;;1.38;;
65130;SDS011;51709;54.912;8.316;2023-08-06T14:04:41;2.42;;;1.38;;
65130;SDS011;51709;54.912;8.316;2023-08-06T14:10:02;1.48;;;1.30;;
65130;SDS011;51709;54.912;8.316;2023-08-06T14:15:22;1.00;;;1.00;;
65130;SDS011;51709;54.912;8.316;2023-08-06T14:20:43;2.67;;;1.02;;
65130;SDS011;51709;54.912;8.316;2023-08-06T14:26:05;1.10;;;1.10;;
65130;SDS011;51709;54.912;8.316;2023-08-06T14:31:25;2.25;;;1.40;;
65130;SDS011;51709;54.912;8.316;2023-08-06T14:36:46;1.65;;;1.00;;
65130;SDS011;51709;54.912;8.316;2023-08-06T14:42:07;1.55;;;0.98;;
65130;SDS011;51709;54.912;8.316;2023-08-06T14:47:27;1.52;;;1.42;;
65130;SDS011;51709;54.912;8.316;2023-08-06T14:52:48;1.17;;;0.98;;
65130;SDS011;51709;54.912;8.316;2023-08-06T14:58:08;1.20;;;1.10;;
65130;SDS011;51709;54.912;8.316;2023-08-06T15:03:29;2.42;;;1.35;;
65130;SDS011;51709;54.912;8.316;2023-08-06T15:08:51;1.40;;;1.30;;
65130;SDS011;51709;54.912;8.316;2023-08-06T15:14:12;1.10;;;1.00;;
65130;SDS011;51709;54.912;8.316;2023-08-06T15:19:34;1.08;;;0.90;;
65130;SDS011;51709;54.912;8.316;2023-08-06T15:24:55;2.55;;;1.55;;
65130;SDS011;51709;54.912;8.316;2023-08-06T15:30:16;1.98;;;1.63;;
65130;SDS011;51709;54.912;8.316;2023-08-06T15:35:38;1.20;;;1.13;;
65130;SDS011;51709;54.912;8.316;2023-08-06T15:40:58;2.50;;;1.60;;
65130;SDS011;51709;54.912;8.316;2023-08-06T15:46:19;1.45;;;1.35;;
65130;SDS011;51709;54.912;8.316;2023-08-06T15:51:40;1.42;;;1.33;;
65130;SDS011;51709;54.912;8.316;2023-08-06T15:57:02;4.07;;;1.40;;
65130;SDS011;51709;54.912;8.316;2023-08-06T16:02:23;1.20;;;1.20;;
65130;SDS011;51709;54.912;8.316;2023-08-06T16:07:44;1.02;;;1.02;;
65130;SDS011;51709;54.912;8.316;2023-08-06T16:13:05;0.82;;;0.80;;
65130;SDS011;51709;54.912;8.316;2023-08-06T16:18:26;4.18;;;1.35;;
65130;SDS011;51709;54.912;8.316;2023-08-06T16:23:47;1.30;;;1.20;;
65130;SDS011;51709;54.912;8.316;2023-08-06T16:29:07;2.67;;;1.42;;
65130;SDS011;51709;54.912;8.316;2023-08-06T16:34:28;2.03;;;1.50;;
65130;SDS011;51709;54.912;8.316;2023-08-06T16:39:48;2.85;;;1.33;;
65130;SDS011;51709;54.912;8.316;2023-08-06T16:45:10;1.70;;;1.38;;
65130;SDS011;51709;54.912;8.316;2023-08-06T16:50:30;4.63;;;1.95;;
65130;SDS011;51709;54.912;8.316;2023-08-06T16:55:52;1.58;;;1.08;;
65130;SDS011;51709;54.912;8.316;2023-08-06T17:01:17;6.47;;;1.38;;
65130;SDS011;51709;54.912;8.316;2023-08-06T17:06:38;1.27;;;1.17;;
65130;SDS011;51709;54.912;8.316;2023-08-06T17:11:58;1.60;;;1.23;;
65130;SDS011;51709;54.912;8.316;2023-08-06T17:17:19;2.38;;;1.10;;
65130;SDS011;51709;54.912;8.316;2023-08-06T17:22:40;2.40;;;1.15;;
65130;SDS011;51709;54.912;8.316;2023-08-06T17:28:01;2.83;;;1.35;;
65130;SDS011;51709;54.912;8.316;2023-08-06T17:33:26;1.20;;;1.02;;
65130;SDS011;51709;54.912;8.316;2023-08-06T17:38:47;0.80;;;0.80;;
65130;SDS011;51709;54.912;8.316;2023-08-06T17:44:08;2.38;;;0.93;;
65130;SDS011;51709;54.912;8.316;2023-08-06T17:49:29;1.52;;;0.98;;
65130;SDS011;51709;54.912;8.316;2023-08-06T17:54:49;1.75;;;0.98;;
65130;SDS011;51709;54.912;8.316;2023-08-06T18:00:11;2.65;;;1.70;;
65130;SDS011;51709;54.912;8.316;2023-08-06T18:05:38;0.98;;;0.95;;
65130;SDS011;51709;54.912;8.316;2023-08-06T18:10:59;2.63;;;1.17;;
65130;SDS011;51709;54.912;8.316;2023-08-06T18:16:20;0.85;;;0.85;;
65130;SDS011;51709;54.912;8.316;2023-08-06T18:21:40;0.93;;;0.93;;
65130;SDS011;51709;54.912;8.316;2023-08-06T18:27:01;1.20;;;1.10;;
65130;SDS011;51709;54.912;8.316;2023-08-06T18:32:22;1.38;;;0.93;;
65130;SDS011;51709;54.912;8.316;2023-08-06T18:37:43;6.60;;;1.20;;
65130;SDS011;51709;54.912;8.316;2023-08-06T18:43:04;5.55;;;1.58;;
65130;SDS011;51709;54.912;8.316;2023-08-06T18:48:24;1.20;;;1.10;;
65130;SDS011;51709;54.912;8.316;2023-08-06T18:53:45;1.48;;;0.90;;
65130;SDS011;51709;54.912;8.316;2023-08-06T18:59:06;3.45;;;1.52;;
65130;SDS011;51709;54.912;8.316;2023-08-06T19:04:27;5.97;;;1.20;;
65130;SDS011;51709;54.912;8.316;2023-08-06T19:09:48;2.50;;;1.15;;
65130;SDS011;51709;54.912;8.316;2023-08-06T19:15:09;4.53;;;1.10;;
65130;SDS011;51709;54.912;8.316;2023-08-06T19:20:30;2.67;;;1.02;;
65130;SDS011;51709;54.912;8.316;2023-08-06T19:25:51;0.90;;;0.90;;
65130;SDS011;51709;54.912;8.316;2023-08-06T19:31:12;1.15;;;0.82;;
65130;SDS011;51709;54.912;8.316;2023-08-06T19:36:32;2.38;;;0.82;;
65130;SDS011;51709;54.912;8.316;2023-08-06T19:41:53;5.50;;;1.67;;
65130;SDS011;51709;54.912;8.316;2023-08-06T19:47:14;7.75;;;1.45;;
65130;SDS011;51709;54.912;8.316;2023-08-06T19:52:35;2.83;;;1.40;;
65130;SDS011;51709;54.912;8.316;2023-08-06T19:57:57;1.65;;;1.40;;
65130;SDS011;51709;54.912;8.316;2023-08-06T20:03:18;6.65;;;1.92;;
65130;SDS011;51709;54.912;8.316;2023-08-06T20:08:38;75.28;;;4.97;;
65130;SDS011;51709;54.912;8.316;2023-08-06T20:14:00;4.20;;;1.42;;
65130;SDS011;51709;54.912;8.316;2023-08-06T20:19:21;4.30;;;1.67;;
65130;SDS011;51709;54.912;8.316;2023-08-06T20:24:44;5.23;;;1.50;;
65130;SDS011;51709;54.912;8.316;2023-08-06T20:30:05;4.00;;;1.70;;
65130;SDS011;51709;54.912;8.316;2023-08-06T20:35:27;5.13;;;2.13;;
65130;SDS011;51709;54.912;8.316;2023-08-06T20:40:48;8.15;;;1.85;;
65130;SDS011;51709;54.912;8.316;2023-08-06T20:46:08;5.45;;;2.20;;
65130;SDS011;51709;54.912;8.316;2023-08-06T20:51:29;4.20;;;1.83;;
65130;SDS011;51709;54.912;8.316;2023-08-06T20:56:50;3.05;;;1.63;;
65130;SDS011;51709;54.912;8.316;2023-08-06T21:02:11;14.02;;;2.15;;
65130;SDS011;51709;54.912;8.316;2023-08-06T21:07:31;2.60;;;1.33;;
65130;SDS011;51709;54.912;8.316;2023-08-06T21:12:52;4.65;;;1.50;;
65130;SDS011;51709;54.912;8.316;2023-08-06T21:18:13;2.47;;;1.50;;
65130;SDS011;51709;54.912;8.316;2023-08-06T21:23:34;2.92;;;1.35;;
65130;SDS011;51709;54.912;8.316;2023-08-06T21:28:54;3.10;;;1.40;;
65130;SDS011;51709;54.912;8.316;2023-08-06T21:34:15;3.78;;;1.60;;
65130;SDS011;51709;54.912;8.316;2023-08-06T21:39:36;2.15;;;1.05;;
65130;SDS011;51709;54.912;8.316;2023-08-06T21:44:57;1.90;;;1.25;;
65130;SDS011;51709;54.912;8.316;2023-08-06T21:50:18;1.70;;;1.02;;
65130;SDS011;51709;54.912;8.316;2023-08-06T21:55:39;1.23;;;0.90;;
65130;SDS011;51709;54.912;8.316;2023-08-06T22:00:59;1.92;;;1.10;;
65130;SDS011;51709;54.912;8.316;2023-08-06T22:06:21;4.05;;;1.40;;
65130;SDS011;51709;54.912;8.316;2023-08-06T22:11:42;6.05;;;1.00;;
65130;SDS011;51709;54.912;8.316;2023-08-06T22:17:03;1.17;;;1.10;;
65130;SDS011;51709;54.912;8.316;2023-08-06T22:22:24;2.17;;;1.23;;
65130;SDS011;51709;54.912;8.316;2023-08-06T22:27:45;1.80;;;0.98;;
65130;SDS011;51709;54.912;8.316;2023-08-06T22:33:06;4.35;;;2.05;;
65130;SDS011;51709;54.912;8.316;2023-08-06T22:38:27;11.85;;;2.20;;
65130;SDS011;51709;54.912;8.316;2023-08-06T22:43:47;9.10;;;2.45;;
65130;SDS011;51709;54.912;8.316;2023-08-06T22:49:08;4.05;;;2.35;;
65130;SDS011;51709;54.912;8.316;2023-08-06T22:54:29;8.60;;;2.10;;
65130;SDS011;51709;54.912;8.316;2023-08-06T22:59:50;4.43;;;3.08;;
65130;SDS011;51709;54.912;8.316;2023-08-06T23:05:11;3.38;;;1.95;;
65130;SDS011;51709;54.912;8.316;2023-08-06T23:10:32;5.20;;;2.42;;
65130;SDS011;51709;54.912;8.316;2023-08-06T23:15:53;4.97;;;1.95;;
65130;SDS011;51709;54.912;8.316;2023-08-06T23:21:14;5.05;;;1.90;;
65130;SDS011;51709;54.912;8.316;2023-08-06T23:26:34;6.40;;;2.22;;
65130;SDS011;51709;54.912;8.316;2023-08-06T23:31:55;7.18;;;2.55;;
65130;SDS011;51709;54.912;8.316;2023-08-06T23:37:17;5.72;;;2.17;;
65130;SDS011;51709;54.912;8.316;2023-08-06T23:42:37;5.47;;;2.28;;
65130;SDS011;51709;54.912;8.316;2023-08-06T23:47:58;5.43;;;2.30;;
65130;SDS011;51709;54.912;8.316;2023-08-06T23:53:19;10.40;;;1.95;;
65130;SDS011;51709;54.912;8.316;2023-08-06T23:58:40;5.60;;;2.25;;
